Map

Track Data

SID SEASON NUMBER BASIN SUBBASIN NAME ISO_TIME NATURE LAT LON WMO_WIND WMO_PRES WMO_AGENCY TRACK_TYPE DIST2LAND LANDFALL IFLAG USA_AGENCY USA_ATCF_ID USA_LAT USA_LON USA_RECORD USA_STATUS USA_WIND USA_PRES USA_SSHS USA_R34_NE USA_R34_SE USA_R34_SW USA_R34_NW USA_R50_NE USA_R50_SE USA_R50_SW USA_R50_NW USA_R64_NE USA_R64_SE USA_R64_SW USA_R64_NW USA_POCI USA_ROCI USA_RMW USA_EYE TOKYO_LAT TOKYO_LON TOKYO_GRADE TOKYO_WIND TOKYO_PRES TOKYO_R50_DIR TOKYO_R50_LONG TOKYO_R50_SHORT TOKYO_R30_DIR TOKYO_R30_LONG TOKYO_R30_SHORT TOKYO_LAND CMA_LAT CMA_LON CMA_CAT CMA_WIND CMA_PRES HKO_LAT HKO_LON HKO_CAT HKO_WIND HKO_PRES NEWDELHI_LAT NEWDELHI_LON NEWDELHI_GRADE NEWDELHI_WIND NEWDELHI_PRES NEWDELHI_CI NEWDELHI_DP NEWDELHI_POCI REUNION_LAT REUNION_LON REUNION_TYPE REUNION_WIND REUNION_PRES REUNION_TNUM REUNION_CI REUNION_RMW REUNION_R34_NE REUNION_R34_SE REUNION_R34_SW REUNION_R34_NW REUNION_R50_NE REUNION_R50_SE REUNION_R50_SW REUNION_R50_NW REUNION_R64_NE REUNION_R64_SE REUNION_R64_SW REUNION_R64_NW BOM_LAT BOM_LON BOM_TYPE BOM_WIND BOM_PRES BOM_TNUM BOM_CI BOM_RMW BOM_R34_NE BOM_R34_SE BOM_R34_SW BOM_R34_NW BOM_R50_NE BOM_R50_SE BOM_R50_SW BOM_R50_NW BOM_R64_NE BOM_R64_SE BOM_R64_SW BOM_R64_NW BOM_ROCI BOM_POCI BOM_EYE BOM_POS_METHOD BOM_PRES_METHOD NADI_LAT NADI_LON NADI_CAT NADI_WIND NADI_PRES WELLINGTON_LAT WELLINGTON_LON WELLINGTON_WIND WELLINGTON_PRES DS824_LAT DS824_LON DS824_STAGE DS824_WIND DS824_PRES TD9636_LAT TD9636_LON TD9636_STAGE TD9636_WIND TD9636_PRES TD9635_LAT TD9635_LON TD9635_WIND TD9635_PRES TD9635_ROCI NEUMANN_LAT NEUMANN_LON NEUMANN_CLASS NEUMANN_WIND NEUMANN_PRES MLC_LAT MLC_LON MLC_CLASS MLC_WIND MLC_PRES USA_GUST BOM_GUST BOM_GUST_PER REUNION_GUST REUNION_GUST_PER USA_SEAHGT USA_SEARAD_NE USA_SEARAD_SE USA_SEARAD_SW USA_SEARAD_NW STORM_SPEED STORM_DIR
1988218N13264 1988 46 EP MM IVA 1988-08-05 00:00:00 TS 13.2000 -96.4000 25 1012 hurdat_epa main 269 257 O_________O___ hurdat_epa EP091988 13.2000 -96.4000 TD 25 1012 -1 13.2000 -96.4000 1 25 17 280
1988218N13264 1988 46 EP MM IVA 1988-08-05 03:00:00 TS 13.3532 -97.2545 main 257 257 P_________P___ EP091988 13.3556 -97.2572 TD 25 1011 -1 13.3460 -97.2462 1 25 17 280
1988218N13264 1988 46 EP MM IVA 1988-08-05 06:00:00 TS 13.4981 -98.0961 25 1011 hurdat_epa main 281 276 O_________P___ hurdat_epa EP091988 13.5000 -98.1000 TD 25 1011 -1 13.4925 -98.0844 1 25 16 280
1988218N13264 1988 46 EP MM IVA 1988-08-05 09:00:00 TS 13.6367 -98.9128 main 293 287 P_________P___ EP091988 13.6347 -98.9152 TD 25 1010 -1 13.6427 -98.9054 1 25 16 281
1988218N13264 1988 46 EP MM IVA 1988-08-05 12:00:00 TS 13.8000 -99.7000 25 1010 hurdat_epa main 303 302 O_________O___ hurdat_epa EP091988 13.8000 -99.7000 TD 25 1010 -1 13.8000 -99.7000 1 25 16 285
1988218N13264 1988 46 EP MM IVA 1988-08-05 15:00:00 TS 14.0347 -100.464 main 314 303 P_________P___ EP091988 14.0573 -100.465 TD 27 1009 -1 13.9669 -100.462 1 27 15 288
1988218N13264 1988 46 EP MM IVA 1988-08-05 18:00:00 TS 14.2603 -101.199 30 1009 hurdat_epa main 313 313 O_________P___ hurdat_epa EP091988 14.3000 -101.200 TD 30 1009 -1 14.1413 -101.195 1 30 14 284
1988218N13264 1988 46 EP MM IVA 1988-08-05 21:00:00 TS 14.3855 -101.913 main 334 334 P_________P___ EP091988 14.4073 -101.915 TD 32 1007 -1 14.3201 -101.906 1 32 14 280
1988218N13264 1988 46 EP MM IVA 1988-08-06 00:00:00 TS 14.5000 -102.600 35 1005 hurdat_epa main 352 352 O_________O___ hurdat_epa EP091988 14.5000 -102.600 TS 35 1005 0 14.5000 -102.600 2 35 13 283
1988218N13264 1988 46 EP MM IVA 1988-08-06 03:00:00 TS 14.6848 -103.266 main 373 369 P_________P___ EP091988 14.6922 -103.250 TS 40 1002 0 14.6625 -103.314 2 37 13 287
1988218N13264 1988 46 EP MM IVA 1988-08-06 06:00:00 TS 14.8818 -103.928 45 1000 hurdat_epa main 373 373 O_________P___ hurdat_epa EP091988 14.9000 -103.900 TS 45 1000 0 14.8272 -104.011 2 40 14 285
1988218N13264 1988 46 EP MM IVA 1988-08-06 09:00:00 TS 15.0327 -104.625 main 387 380 P_________P___ EP091988 15.0425 -104.608 TS 45 1000 0 15.0032 -104.677 2 42 14 283
1988218N13264 1988 46 EP MM IVA 1988-08-06 12:00:00 TS 15.2000 -105.300 45 1000 hurdat_epa main 396 396 O_________O___ hurdat_epa EP091988 15.2000 -105.300 TS 45 1000 0 15.2000 -105.300 2 45 13 288
1988218N13264 1988 46 EP MM IVA 1988-08-06 15:00:00 TS 15.4341 -105.924 main 413 411 P_________P___ EP091988 15.4349 -105.937 TS 50 997 0 15.4318 -105.884 2 50 12 294
1988218N13264 1988 46 EP MM IVA 1988-08-06 18:00:00 TS 15.6960 -106.481 55 994 hurdat_epa main 431 425 O_________P___ hurdat_epa EP091988 15.7000 -106.500 TS 55 994 0 15.6842 -106.425 2 55 11 297
1988218N13264 1988 46 EP MM IVA 1988-08-06 21:00:00 TS 15.9484 -106.962 main 436 427 P_________P___ EP091988 15.9497 -106.973 TS 60 990 0 15.9445 -106.928 2 60 10 300
1988218N13264 1988 46 EP MM IVA 1988-08-07 00:00:00 TS 16.2000 -107.400 65 987 hurdat_epa main 434 432 O_________O___ hurdat_epa EP091988 16.2000 -107.400 HU 65 987 1 16.2000 -107.400 3 65 10 300
1988218N13264 1988 46 EP MM IVA 1988-08-07 03:00:00 TS 16.4510 -107.860 main 446 446 P_________P___ EP091988 16.4575 -107.858 HU 65 987 1 16.4318 -107.866 3 65 10 300
1988218N13264 1988 46 EP MM IVA 1988-08-07 06:00:00 TS 16.6893 -108.301 65 987 hurdat_epa main 461 460 O_________P___ hurdat_epa EP091988 16.7000 -108.300 HU 65 987 1 16.6570 -108.303 3 66 9 299
1988218N13264 1988 46 EP MM IVA 1988-08-07 09:00:00 TS 16.8946 -108.703 main 476 476 P_________P___ EP091988 16.8998 -108.700 HU 66 983 1 16.8787 -108.713 3 66 9 298
1988218N13264 1988 46 EP MM IVA 1988-08-07 12:00:00 TS 17.1000 -109.100 67 979 hurdat_epa main 495 495 O_________O___ hurdat_epa EP091988 17.1000 -109.100 HU 67 979 1 17.1000 -109.100 4 67 9 299
1988218N13264 1988 46 EP MM IVA 1988-08-07 15:00:00 TS 17.3407 -109.544 main 517 517 P_________P___ EP091988 17.3501 -109.572 HU 75 977 1 17.3123 -109.460 4 72 9 301
1988218N13264 1988 46 EP MM IVA 1988-08-07 18:00:00 TS 17.5817 -109.950 84 975 hurdat_epa main 544 544 O_________P___ hurdat_epa EP091988 17.6000 -110.000 HU 84 975 2 17.5268 -109.801 4 78 8 305
1988218N13264 1988 46 EP MM IVA 1988-08-07 21:00:00 TS 17.7993 -110.234 main 552 549 P_________P___ EP091988 17.8148 -110.265 HU 87 972 2 17.7529 -110.141 4 84 7 309
1988218N13264 1988 46 EP MM IVA 1988-08-08 00:00:00 TS 18.0000 -110.500 90 970 hurdat_epa main 550 540 O_________O___ hurdat_epa EP091988 18.0000 -110.500 HU 90 970 2 18.0000 -110.500 4 90 7 302
1988218N13264 1988 46 EP MM IVA 1988-08-08 03:00:00 TS 18.1539 -110.835 main 532 518 P_________P___ EP091988 18.1124 -110.813 HU 90 970 2 18.2783 -110.899 4 90 8 298
1988218N13264 1988 46 EP MM IVA 1988-08-08 06:00:00 TS 18.3693 -111.230 90 970 hurdat_epa main 518 498 O_________P___ hurdat_epa EP091988 18.3000 -111.200 HU 90 970 2 18.5773 -111.320 4 90 10 306
1988218N13264 1988 46 EP MM IVA 1988-08-08 09:00:00 TS 18.7563 -111.697 main 491 467 P_________P___ EP091988 18.7125 -111.677 HU 90 969 2 18.8876 -111.756 4 90 12 312
1988218N13264 1988 46 EP MM IVA 1988-08-08 12:00:00 TS 19.2000 -112.200 90 968 hurdat_epa main 472 456 O_________O___ hurdat_epa EP091988 19.2000 -112.200 HU 90 968 2 19.2000 -112.200 4 90 13 312
1988218N13264 1988 46 EP MM IVA 1988-08-08 15:00:00 TS 19.6122 -112.697 main 463 457 P_________P___ EP091988 19.6375 -112.715 HU 90 969 2 19.5363 -112.642 4 88 12 310
1988218N13264 1988 46 EP MM IVA 1988-08-08 18:00:00 TS 19.9668 -113.173 90 970 hurdat_epa main 463 463 O_________P___ hurdat_epa EP091988 20.0000 -113.200 HU 90 970 2 19.8671 -113.092 4 87 10 306
1988218N13264 1988 46 EP MM IVA 1988-08-08 21:00:00 TS 20.2246 -113.587 main 479 479 P_________P___ EP091988 20.2447 -113.600 HU 87 972 2 20.1644 -113.545 4 85 9 299
1988218N13264 1988 46 EP MM IVA 1988-08-09 00:00:00 TS 20.4000 -114.000 84 975 hurdat_epa main 498 498 O_________O___ hurdat_epa EP091988 20.4000 -114.000 HU 84 975 2 20.4000 -114.000 4 84 9 290
1988218N13264 1988 46 EP MM IVA 1988-08-09 03:00:00 TS 20.5319 -114.491 main 526 522 P_________P___ EP091988 20.5226 -114.500 HU 84 975 2 20.5598 -114.463 4 82 9 283
1988218N13264 1988 46 EP MM IVA 1988-08-09 06:00:00 TS 20.6137 -114.981 84 975 hurdat_epa main 545 545 O_________P___ hurdat_epa EP091988 20.6000 -115.000 HU 84 975 2 20.6548 -114.923 4 80 9 280
1988218N13264 1988 46 EP MM IVA 1988-08-09 09:00:00 TS 20.6785 -115.399 main 560 560 P_________P___ EP091988 20.6722 -115.407 HU 80 977 1 20.6974 -115.372 4 78 8 276
1988218N13264 1988 46 EP MM IVA 1988-08-09 12:00:00 TS 20.7000 -115.800 77 979 hurdat_epa main 586 586 O_________O___ hurdat_epa EP091988 20.7000 -115.800 HU 77 979 1 20.7000 -115.800 4 77 8 269
1988218N13264 1988 46 EP MM IVA 1988-08-09 15:00:00 TS 20.6703 -116.259 main 620 620 P_________P___ EP091988 20.6651 -116.265 HU 71 983 1 20.6860 -116.242 4 71 8 264
1988218N13264 1988 46 EP MM IVA 1988-08-09 18:00:00 TS 20.6094 -116.689 65 987 hurdat_epa main 657 657 O_________P___ hurdat_epa EP091988 20.6000 -116.700 HU 65 987 1 20.6376 -116.656 4 66 7 261
1988218N13264 1988 46 EP MM IVA 1988-08-09 21:00:00 TS 20.5551 -117.044 main 680 680 P_________P___ EP091988 20.5499 -117.052 HU 60 990 0 20.5704 -117.017 4 60 6 259
1988218N13264 1988 46 EP MM IVA 1988-08-10 00:00:00 TS 20.5000 -117.300 55 994 hurdat_epa main 710 710 O_________O___ hurdat_epa EP091988 20.5000 -117.300 TS 55 994 0 20.5000 -117.300 2 55 4 254
1988218N13264 1988 46 EP MM IVA 1988-08-10 03:00:00 TS 20.4508 -117.440 main 717 717 P_________P___ EP091988 20.4499 -117.430 TS 55 994 0 20.4535 -117.471 2 52 2 244
1988218N13264 1988 46 EP MM IVA 1988-08-10 06:00:00 TS 20.4017 -117.517 55 994 hurdat_epa main 733 733 O_________P___ hurdat_epa EP091988 20.4000 -117.500 TS 55 994 0 20.4069 -117.567 2 50 2 238
1988218N13264 1988 46 EP MM IVA 1988-08-10 09:00:00 TS 20.3517 -117.608 main 740 740 P_________P___ EP091988 20.3500 -117.600 TS 50 997 0 20.3568 -117.630 2 47 2 240
1988218N13264 1988 46 EP MM IVA 1988-08-10 12:00:00 TS 20.3000 -117.700 45 1000 hurdat_epa main 756 756 O_________O___ hurdat_epa EP091988 20.3000 -117.700 TS 45 1000 0 20.3000 -117.700 2 45 2 240
1988218N13264 1988 46 EP MM IVA 1988-08-10 15:00:00 TS 20.2511 -117.796 main 763 763 P_________P___ EP091988 20.2575 -117.785 TS 42 1001 0 20.2321 -117.827 2 42 2 242
1988218N13264 1988 46 EP MM IVA 1988-08-10 18:00:00 TS 20.1894 -117.918 40 1002 hurdat_epa main 778 778 O_________P___ hurdat_epa EP091988 20.2000 -117.900 TS 40 1002 0 20.1574 -117.970 2 40 3 241
1988218N13264 1988 46 EP MM IVA 1988-08-10 21:00:00 TS 20.0948 -118.096 main 801 801 P_________P___ EP091988 20.1000 -118.085 TS 37 1003 0 20.0790 -118.127 2 37 4 242
1988218N13264 1988 46 EP MM IVA 1988-08-11 00:00:00 TS 20.0000 -118.300 35 1005 hurdat_epa main 824 824 O_________O___ hurdat_epa EP091988 20.0000 -118.300 TS 35 1005 0 20.0000 -118.300 2 35 4 248
1988218N13264 1988 46 EP MM IVA 1988-08-11 03:00:00 TS 19.9458 -118.495 main 848 848 P_________P___ EP091988 19.9500 -118.500 TS 35 1005 0 19.9331 -118.481 2 35 4 254
1988218N13264 1988 46 EP MM IVA 1988-08-11 06:00:00 TS 19.8912 -118.694 35 1005 hurdat_epa main 863 863 O_________P___ hurdat_epa EP091988 19.9000 -118.700 TS 35 1005 0 19.8649 -118.677 2 35 4 249
1988218N13264 1988 46 EP MM IVA 1988-08-11 09:00:00 TS 19.8029 -118.896 main 886 886 P_________P___ EP091988 19.8075 -118.900 TS 35 1005 0 19.7893 -118.885 2 35 4 243
1988218N13264 1988 46 EP MM IVA 1988-08-11 12:00:00 TS 19.7000 -119.100 35 1006 hurdat_epa main 910 910 O_________O___ hurdat_epa EP091988 19.7000 -119.100 TS 35 1006 0 19.7000 -119.100 2 35 4 242
1988218N13264 1988 46 EP MM IVA 1988-08-11 15:00:00 TS 19.6009 -119.301 main 933 933 P_________P___ EP091988 19.6075 -119.292 TS 32 1007 -1 19.5813 -119.326 2 33 4 241
1988218N13264 1988 46 EP MM IVA 1988-08-11 18:00:00 TS 19.4875 -119.514 30 1009 hurdat_epa main 956 956 O_________P___ hurdat_epa EP091988 19.5000 -119.500 TD 30 1009 -1 19.4500 -119.558 2 32 5 239
1988218N13264 1988 46 EP MM IVA 1988-08-11 21:00:00 TS 19.3422 -119.759 main 995 995 P_________P___ EP091988 19.3500 -119.750 TD 30 1009 -1 19.3188 -119.785 2 31 5 238
1988218N13264 1988 46 EP MM IVA 1988-08-12 00:00:00 TS 19.2000 -120.000 30 1009 hurdat_epa main 1018 1018 O_________O___ hurdat_epa EP091988 19.2000 -120.000 TD 30 1009 -1 19.2000 -120.000 1 30 5 240
1988218N13264 1988 46 EP MM IVA 1988-08-12 03:00:00 TS 19.0934 -120.206 main 1041 1041 P_________P___ EP091988 19.0850 -120.215 TD 27 1009 -1 19.1186 -120.181 1 28 4 243
1988218N13264 1988 46 EP MM IVA 1988-08-12 06:00:00 TS 19.0124 -120.387 25 1010 hurdat_epa main 1065 1065 O_________P___ hurdat_epa EP091988 19.0000 -120.400 TD 25 1010 -1 19.0497 -120.350 1 27 3 247
1988218N13264 1988 46 EP MM IVA 1988-08-12 09:00:00 TS 18.9633 -120.536 main 1073 1073 P_________P___ EP091988 18.9574 -120.542 TD 25 1010 -1 18.9811 -120.518 1 26 3 249
1988218N13264 1988 46 EP MM IVA 1988-08-12 12:00:00 TS 18.9000 -120.700 25 1010 hurdat_epa main 1096 1096 O_________O___ hurdat_epa EP091988 18.9000 -120.700 TD 25 1010 -1 18.9000 -120.700 1 25 4 242
1988218N13264 1988 46 EP MM IVA 1988-08-12 15:00:00 TS 18.7665 -120.933 main 1120 1120 P_________P___ EP091988 18.7575 -120.943 TD 22 1010 -1 18.7934 -120.902 1 23 5 238
1988218N13264 1988 46 EP MM IVA 1988-08-12 18:00:00 TS 18.6181 -121.180 20 1011 hurdat_epa main 1158 1158 O_________P___ hurdat_epa EP091988 18.6000 -121.200 TD 20 1011 -1 18.6724 -121.120 1 22 5 239
1988218N13264 1988 46 EP MM IVA 1988-08-12 21:00:00 TS 18.5100 -121.388 main 1182 1182 P_________P___ EP091988 18.4999 -121.400 TD 20 1011 -1 18.5402 -121.352 1 21 5 241
1988218N13264 1988 46 EP MM IVA 1988-08-13 00:00:00 TS 18.4000 -121.600 20 1012 hurdat_epa main 1205 1205 O_________O___ hurdat_epa EP091988 18.4000 -121.600 TD 20 1012 -1 18.4000 -121.600 1 20 5 240
1988218N13264 1988 46 EP MM IVA 1988-08-13 03:00:00 TS 18.2573 -121.840 main 1229 1229 P_________P___ EP091988 18.2575 -121.835 TD 20 1012 -1 18.2568 -121.856 1 20 6 238
1988218N13264 1988 46 EP MM IVA 1988-08-13 06:00:00 TS 18.1017 -122.107 20 1012 hurdat_epa main 1268 1268 O_________P___ hurdat_epa EP091988 18.1000 -122.100 TD 20 1012 -1 18.1067 -122.126 1 20 6 240
1988218N13264 1988 46 EP MM IVA 1988-08-13 09:00:00 TS 17.9508 -122.396 main 1300 1300 P_________P___ EP091988 17.9500 -122.392 TD 20 1012 -1 17.9533 -122.408 1 20 6 242
1988218N13264 1988 46 EP MM IVA 1988-08-13 12:00:00 TS 17.8000 -122.700 20 1013 hurdat_epa main 1338 1338 O_________O___ hurdat_epa EP091988 17.8000 -122.700 TD 20 1013 -1 17.8000 -122.700 1 20 7 242
1988218N13264 1988 46 EP MM IVA 1988-08-13 15:00:00 TS 17.6499 -123.002 main 1377 1377 P_________P___ EP091988 17.6501 -123.003 TD 20 1013 -1 17.6492 -122.998 1 20 6 242
1988218N13264 1988 46 EP MM IVA 1988-08-13 18:00:00 TS 17.5000 -123.300 20 1013 hurdat_epa main 1409 O_________O___ hurdat_epa EP091988 17.5000 -123.300 TD 20 1013 -1 17.5000 -123.300 1 20 6 242

About IBTrACS Database

This database is a web-friendly format of International Best Track Archive for Climate Stewardship (IBTrACS), a global best track data archive curated by NOAA dating back to 1842.

Updated: 2021-12-08